sensor_id;sensor_type;location;lat;lon;timestamp;P1;durP1;ratioP1;P2;durP2;ratioP2
27517;SDS011;14962;52.482;13.142;2022-08-19T00:01:31;13.25;;;10.88;;
27517;SDS011;14962;52.482;13.142;2022-08-19T00:03:58;13.25;;;10.70;;
27517;SDS011;14962;52.482;13.142;2022-08-19T00:06:25;12.65;;;10.50;;
27517;SDS011;14962;52.482;13.142;2022-08-19T00:08:51;14.30;;;11.02;;
27517;SDS011;14962;52.482;13.142;2022-08-19T00:11:17;15.13;;;10.80;;
27517;SDS011;14962;52.482;13.142;2022-08-19T00:13:43;13.85;;;11.00;;
27517;SDS011;14962;52.482;13.142;2022-08-19T00:16:13;13.02;;;10.50;;
27517;SDS011;14962;52.482;13.142;2022-08-19T00:18:39;15.60;;;11.30;;
27517;SDS011;14962;52.482;13.142;2022-08-19T00:21:05;14.38;;;11.25;;
27517;SDS011;14962;52.482;13.142;2022-08-19T00:23:33;13.52;;;10.90;;
27517;SDS011;14962;52.482;13.142;2022-08-19T00:26:01;13.88;;;11.20;;
27517;SDS011;14962;52.482;13.142;2022-08-19T00:28:27;12.07;;;10.48;;
27517;SDS011;14962;52.482;13.142;2022-08-19T00:30:53;13.65;;;10.98;;
27517;SDS011;14962;52.482;13.142;2022-08-19T00:33:19;14.02;;;10.80;;
27517;SDS011;14962;52.482;13.142;2022-08-19T00:35:45;12.77;;;10.15;;
27517;SDS011;14962;52.482;13.142;2022-08-19T00:38:11;11.65;;;10.13;;
27517;SDS011;14962;52.482;13.142;2022-08-19T00:40:37;14.38;;;10.25;;
27517;SDS011;14962;52.482;13.142;2022-08-19T00:43:07;18.77;;;12.43;;
27517;SDS011;14962;52.482;13.142;2022-08-19T00:45:33;13.48;;;10.60;;
27517;SDS011;14962;52.482;13.142;2022-08-19T00:48:00;13.98;;;11.02;;
27517;SDS011;14962;52.482;13.142;2022-08-19T00:50:29;13.18;;;10.70;;
27517;SDS011;14962;52.482;13.142;2022-08-19T00:52:55;13.65;;;10.88;;
27517;SDS011;14962;52.482;13.142;2022-08-19T00:55:22;13.07;;;10.70;;
27517;SDS011;14962;52.482;13.142;2022-08-19T00:57:53;15.75;;;12.05;;
27517;SDS011;14962;52.482;13.142;2022-08-19T01:00:21;19.30;;;11.90;;
27517;SDS011;14962;52.482;13.142;2022-08-19T01:02:47;15.15;;;11.57;;
27517;SDS011;14962;52.482;13.142;2022-08-19T01:05:17;13.75;;;11.57;;
27517;SDS011;14962;52.482;13.142;2022-08-19T01:07:44;14.95;;;11.32;;
27517;SDS011;14962;52.482;13.142;2022-08-19T01:10:12;14.07;;;11.57;;
27517;SDS011;14962;52.482;13.142;2022-08-19T01:12:40;13.85;;;11.48;;
27517;SDS011;14962;52.482;13.142;2022-08-19T01:15:07;13.32;;;10.57;;
27517;SDS011;14962;52.482;13.142;2022-08-19T01:17:34;17.75;;;11.48;;
27517;SDS011;14962;52.482;13.142;2022-08-19T01:20:02;12.95;;;11.43;;
27517;SDS011;14962;52.482;13.142;2022-08-19T01:22:34;16.10;;;11.32;;
27517;SDS011;14962;52.482;13.142;2022-08-19T01:25:01;16.42;;;11.68;;
27517;SDS011;14962;52.482;13.142;2022-08-19T01:27:36;14.52;;;11.65;;
27517;SDS011;14962;52.482;13.142;2022-08-19T01:30:02;16.52;;;10.88;;
27517;SDS011;14962;52.482;13.142;2022-08-19T01:32:28;16.73;;;12.05;;
27517;SDS011;14962;52.482;13.142;2022-08-19T01:34:55;13.38;;;10.20;;
27517;SDS011;14962;52.482;13.142;2022-08-19T01:37:21;13.63;;;11.48;;
27517;SDS011;14962;52.482;13.142;2022-08-19T01:39:47;14.63;;;11.88;;
27517;SDS011;14962;52.482;13.142;2022-08-19T01:42:13;13.75;;;11.18;;
27517;SDS011;14962;52.482;13.142;2022-08-19T01:44:39;12.55;;;10.70;;
27517;SDS011;14962;52.482;13.142;2022-08-19T01:47:06;17.45;;;11.65;;
27517;SDS011;14962;52.482;13.142;2022-08-19T01:49:33;15.95;;;11.25;;
27517;SDS011;14962;52.482;13.142;2022-08-19T01:52:00;14.98;;;12.43;;
27517;SDS011;14962;52.482;13.142;2022-08-19T01:54:26;16.08;;;11.70;;
27517;SDS011;14962;52.482;13.142;2022-08-19T01:56:53;14.60;;;11.63;;
27517;SDS011;14962;52.482;13.142;2022-08-19T01:59:21;13.10;;;10.93;;
27517;SDS011;14962;52.482;13.142;2022-08-19T02:01:48;17.20;;;11.70;;
27517;SDS011;14962;52.482;13.142;2022-08-19T02:04:14;16.73;;;13.07;;
27517;SDS011;14962;52.482;13.142;2022-08-19T02:06:40;14.30;;;11.98;;
27517;SDS011;14962;52.482;13.142;2022-08-19T02:09:08;17.30;;;12.70;;
27517;SDS011;14962;52.482;13.142;2022-08-19T02:11:34;19.35;;;13.02;;
27517;SDS011;14962;52.482;13.142;2022-08-19T02:14:02;18.98;;;13.20;;
27517;SDS011;14962;52.482;13.142;2022-08-19T02:16:28;16.35;;;12.15;;
27517;SDS011;14962;52.482;13.142;2022-08-19T02:18:55;21.52;;;13.88;;
27517;SDS011;14962;52.482;13.142;2022-08-19T02:21:21;14.65;;;12.48;;
27517;SDS011;14962;52.482;13.142;2022-08-19T02:23:48;17.35;;;13.70;;
27517;SDS011;14962;52.482;13.142;2022-08-19T02:26:15;16.48;;;12.65;;
27517;SDS011;14962;52.482;13.142;2022-08-19T02:28:41;20.45;;;14.48;;
27517;SDS011;14962;52.482;13.142;2022-08-19T02:31:09;19.38;;;14.15;;
27517;SDS011;14962;52.482;13.142;2022-08-19T02:33:35;24.88;;;14.52;;
27517;SDS011;14962;52.482;13.142;2022-08-19T02:36:03;18.95;;;13.75;;
27517;SDS011;14962;52.482;13.142;2022-08-19T02:38:29;21.35;;;14.60;;
27517;SDS011;14962;52.482;13.142;2022-08-19T02:40:57;19.33;;;14.88;;
27517;SDS011;14962;52.482;13.142;2022-08-19T02:43:23;18.83;;;14.90;;
27517;SDS011;14962;52.482;13.142;2022-08-19T02:45:50;17.85;;;14.95;;
27517;SDS011;14962;52.482;13.142;2022-08-19T02:48:17;18.85;;;14.88;;
27517;SDS011;14962;52.482;13.142;2022-08-19T02:50:43;20.73;;;15.13;;
27517;SDS011;14962;52.482;13.142;2022-08-19T02:53:10;22.27;;;15.10;;
27517;SDS011;14962;52.482;13.142;2022-08-19T02:55:36;17.52;;;12.90;;
27517;SDS011;14962;52.482;13.142;2022-08-19T02:58:07;20.83;;;13.55;;
27517;SDS011;14962;52.482;13.142;2022-08-19T03:00:33;20.60;;;13.98;;
27517;SDS011;14962;52.482;13.142;2022-08-19T03:02:59;20.02;;;13.70;;
27517;SDS011;14962;52.482;13.142;2022-08-19T03:05:25;16.35;;;13.70;;
27517;SDS011;14962;52.482;13.142;2022-08-19T03:07:52;18.60;;;13.93;;
27517;SDS011;14962;52.482;13.142;2022-08-19T03:10:18;18.42;;;12.80;;
27517;SDS011;14962;52.482;13.142;2022-08-19T03:12:45;22.17;;;13.18;;
27517;SDS011;14962;52.482;13.142;2022-08-19T03:15:11;18.40;;;14.13;;
27517;SDS011;14962;52.482;13.142;2022-08-19T03:17:37;19.08;;;14.70;;
27517;SDS011;14962;52.482;13.142;2022-08-19T03:20:04;17.85;;;13.85;;
27517;SDS011;14962;52.482;13.142;2022-08-19T03:22:30;16.73;;;13.32;;
27517;SDS011;14962;52.482;13.142;2022-08-19T03:24:56;17.25;;;13.52;;
27517;SDS011;14962;52.482;13.142;2022-08-19T03:27:22;17.85;;;13.90;;
27517;SDS011;14962;52.482;13.142;2022-08-19T03:29:48;16.80;;;13.55;;
27517;SDS011;14962;52.482;13.142;2022-08-19T03:32:14;14.60;;;12.50;;
27517;SDS011;14962;52.482;13.142;2022-08-19T03:34:40;18.23;;;12.75;;
27517;SDS011;14962;52.482;13.142;2022-08-19T03:37:08;15.50;;;12.70;;
27517;SDS011;14962;52.482;13.142;2022-08-19T03:39:35;15.57;;;13.05;;
27517;SDS011;14962;52.482;13.142;2022-08-19T03:42:01;17.70;;;12.98;;
27517;SDS011;14962;52.482;13.142;2022-08-19T03:44:28;15.32;;;12.10;;
27517;SDS011;14962;52.482;13.142;2022-08-19T03:46:55;15.85;;;13.10;;
27517;SDS011;14962;52.482;13.142;2022-08-19T03:49:22;16.10;;;12.57;;
27517;SDS011;14962;52.482;13.142;2022-08-19T03:51:48;20.00;;;13.25;;
27517;SDS011;14962;52.482;13.142;2022-08-19T03:54:16;16.10;;;12.40;;
27517;SDS011;14962;52.482;13.142;2022-08-19T03:56:43;16.27;;;12.98;;
27517;SDS011;14962;52.482;13.142;2022-08-19T03:59:10;17.95;;;13.55;;
27517;SDS011;14962;52.482;13.142;2022-08-19T04:01:38;17.33;;;12.73;;
27517;SDS011;14962;52.482;13.142;2022-08-19T04:04:04;16.38;;;13.25;;
27517;SDS011;14962;52.482;13.142;2022-08-19T04:06:34;15.98;;;13.10;;
27517;SDS011;14962;52.482;13.142;2022-08-19T04:09:00;14.07;;;12.43;;
27517;SDS011;14962;52.482;13.142;2022-08-19T04:11:28;15.80;;;12.43;;
27517;SDS011;14962;52.482;13.142;2022-08-19T04:13:55;15.13;;;13.35;;
27517;SDS011;14962;52.482;13.142;2022-08-19T04:16:22;16.23;;;12.68;;
27517;SDS011;14962;52.482;13.142;2022-08-19T04:18:48;15.88;;;12.77;;
27517;SDS011;14962;52.482;13.142;2022-08-19T04:21:16;15.68;;;12.27;;
27517;SDS011;14962;52.482;13.142;2022-08-19T04:23:42;18.55;;;13.25;;
27517;SDS011;14962;52.482;13.142;2022-08-19T04:26:12;16.27;;;12.20;;
27517;SDS011;14962;52.482;13.142;2022-08-19T04:28:38;14.88;;;11.73;;
27517;SDS011;14962;52.482;13.142;2022-08-19T04:31:04;14.90;;;12.90;;
27517;SDS011;14962;52.482;13.142;2022-08-19T04:33:30;13.52;;;11.18;;
27517;SDS011;14962;52.482;13.142;2022-08-19T04:35:56;15.43;;;12.15;;
27517;SDS011;14962;52.482;13.142;2022-08-19T04:38:23;14.18;;;12.00;;
27517;SDS011;14962;52.482;13.142;2022-08-19T04:40:50;13.77;;;11.38;;
27517;SDS011;14962;52.482;13.142;2022-08-19T04:43:35;16.23;;;11.27;;
27517;SDS011;14962;52.482;13.142;2022-08-19T04:46:07;13.77;;;11.52;;
27517;SDS011;14962;52.482;13.142;2022-08-19T04:48:34;14.43;;;11.52;;
27517;SDS011;14962;52.482;13.142;2022-08-19T04:51:00;14.10;;;11.52;;
27517;SDS011;14962;52.482;13.142;2022-08-19T04:53:28;15.45;;;12.38;;
27517;SDS011;14962;52.482;13.142;2022-08-19T04:55:54;14.27;;;11.65;;
27517;SDS011;14962;52.482;13.142;2022-08-19T04:58:21;16.67;;;11.65;;
27517;SDS011;14962;52.482;13.142;2022-08-19T05:00:47;15.35;;;11.52;;
27517;SDS011;14962;52.482;13.142;2022-08-19T05:03:13;16.23;;;11.65;;
27517;SDS011;14962;52.482;13.142;2022-08-19T05:05:42;13.52;;;11.25;;
27517;SDS011;14962;52.482;13.142;2022-08-19T05:08:08;15.15;;;11.57;;
27517;SDS011;14962;52.482;13.142;2022-08-19T05:10:38;15.32;;;11.82;;
27517;SDS011;14962;52.482;13.142;2022-08-19T05:13:04;14.50;;;12.15;;
27517;SDS011;14962;52.482;13.142;2022-08-19T05:15:30;14.90;;;11.82;;
27517;SDS011;14962;52.482;13.142;2022-08-19T05:17:56;16.48;;;12.07;;
27517;SDS011;14962;52.482;13.142;2022-08-19T05:20:41;15.75;;;12.85;;
27517;SDS011;14962;52.482;13.142;2022-08-19T05:23:33;15.90;;;11.52;;
27517;SDS011;14962;52.482;13.142;2022-08-19T05:25:59;15.35;;;12.32;;
27517;SDS011;14962;52.482;13.142;2022-08-19T05:28:25;18.08;;;11.48;;
27517;SDS011;14962;52.482;13.142;2022-08-19T05:30:52;20.60;;;12.63;;
27517;SDS011;14962;52.482;13.142;2022-08-19T05:33:20;17.35;;;12.70;;
27517;SDS011;14962;52.482;13.142;2022-08-19T05:35:46;20.52;;;12.77;;
27517;SDS011;14962;52.482;13.142;2022-08-19T05:38:13;16.30;;;12.25;;
27517;SDS011;14962;52.482;13.142;2022-08-19T05:40:39;15.43;;;12.25;;
27517;SDS011;14962;52.482;13.142;2022-08-19T05:43:06;15.77;;;12.32;;
27517;SDS011;14962;52.482;13.142;2022-08-19T05:45:33;16.67;;;12.30;;
27517;SDS011;14962;52.482;13.142;2022-08-19T05:48:03;14.43;;;11.77;;
27517;SDS011;14962;52.482;13.142;2022-08-19T05:50:29;16.13;;;11.20;;
27517;SDS011;14962;52.482;13.142;2022-08-19T05:52:55;15.88;;;12.15;;
27517;SDS011;14962;52.482;13.142;2022-08-19T05:55:21;13.65;;;10.68;;
27517;SDS011;14962;52.482;13.142;2022-08-19T05:57:47;14.38;;;11.45;;
27517;SDS011;14962;52.482;13.142;2022-08-19T06:00:13;16.02;;;11.98;;
27517;SDS011;14962;52.482;13.142;2022-08-19T06:02:40;13.48;;;10.93;;
27517;SDS011;14962;52.482;13.142;2022-08-19T06:05:06;13.77;;;10.15;;
27517;SDS011;14962;52.482;13.142;2022-08-19T06:07:37;13.23;;;11.40;;
27517;SDS011;14962;52.482;13.142;2022-08-19T06:10:04;15.45;;;11.30;;
27517;SDS011;14962;52.482;13.142;2022-08-19T06:12:31;14.25;;;12.13;;
27517;SDS011;14962;52.482;13.142;2022-08-19T06:14:59;16.63;;;11.30;;
27517;SDS011;14962;52.482;13.142;2022-08-19T06:17:25;14.93;;;11.15;;
27517;SDS011;14962;52.482;13.142;2022-08-19T06:19:51;14.65;;;11.52;;
27517;SDS011;14962;52.482;13.142;2022-08-19T06:22:17;14.10;;;10.65;;
27517;SDS011;14962;52.482;13.142;2022-08-19T06:24:43;14.20;;;10.88;;
27517;SDS011;14962;52.482;13.142;2022-08-19T06:27:09;13.40;;;10.55;;
27517;SDS011;14962;52.482;13.142;2022-08-19T06:29:35;17.92;;;11.25;;
27517;SDS011;14962;52.482;13.142;2022-08-19T06:32:02;15.93;;;11.02;;
27517;SDS011;14962;52.482;13.142;2022-08-19T06:34:29;15.77;;;10.52;;
27517;SDS011;14962;52.482;13.142;2022-08-19T06:36:56;12.30;;;11.00;;
27517;SDS011;14962;52.482;13.142;2022-08-19T06:39:27;12.85;;;10.68;;
27517;SDS011;14962;52.482;13.142;2022-08-19T06:41:54;11.57;;;10.02;;
27517;SDS011;14962;52.482;13.142;2022-08-19T06:44:22;13.43;;;10.40;;
27517;SDS011;14962;52.482;13.142;2022-08-19T06:46:48;12.45;;;10.43;;
27517;SDS011;14962;52.482;13.142;2022-08-19T06:49:14;12.30;;;11.00;;
27517;SDS011;14962;52.482;13.142;2022-08-19T06:51:42;12.30;;;10.77;;
27517;SDS011;14962;52.482;13.142;2022-08-19T06:54:08;16.90;;;10.60;;
27517;SDS011;14962;52.482;13.142;2022-08-19T06:56:34;13.15;;;10.90;;
27517;SDS011;14962;52.482;13.142;2022-08-19T06:59:01;13.98;;;10.77;;
27517;SDS011;14962;52.482;13.142;2022-08-19T07:01:28;14.05;;;12.10;;
27517;SDS011;14962;52.482;13.142;2022-08-19T07:03:54;11.50;;;9.73;;
27517;SDS011;14962;52.482;13.142;2022-08-19T07:06:21;13.23;;;10.57;;
27517;SDS011;14962;52.482;13.142;2022-08-19T07:08:47;16.33;;;11.00;;
27517;SDS011;14962;52.482;13.142;2022-08-19T07:11:14;12.57;;;10.73;;
27517;SDS011;14962;52.482;13.142;2022-08-19T07:13:42;15.48;;;11.25;;
27517;SDS011;14962;52.482;13.142;2022-08-19T07:16:10;14.63;;;10.32;;
27517;SDS011;14962;52.482;13.142;2022-08-19T07:18:36;14.65;;;11.68;;
27517;SDS011;14962;52.482;13.142;2022-08-19T07:21:13;14.98;;;11.02;;
27517;SDS011;14962;52.482;13.142;2022-08-19T07:23:39;13.25;;;10.20;;
27517;SDS011;14962;52.482;13.142;2022-08-19T07:26:10;13.80;;;10.95;;
27517;SDS011;14962;52.482;13.142;2022-08-19T07:28:37;13.48;;;10.90;;
27517;SDS011;14962;52.482;13.142;2022-08-19T07:31:09;13.38;;;10.60;;
27517;SDS011;14962;52.482;13.142;2022-08-19T07:33:35;13.07;;;11.10;;
27517;SDS011;14962;52.482;13.142;2022-08-19T07:36:02;14.48;;;11.70;;
27517;SDS011;14962;52.482;13.142;2022-08-19T07:38:29;13.30;;;11.18;;
27517;SDS011;14962;52.482;13.142;2022-08-19T07:40:55;14.15;;;12.07;;
27517;SDS011;14962;52.482;13.142;2022-08-19T07:43:20;15.05;;;12.10;;
27517;SDS011;14962;52.482;13.142;2022-08-19T07:45:50;15.32;;;12.43;;
27517;SDS011;14962;52.482;13.142;2022-08-19T07:48:16;15.77;;;11.43;;
27517;SDS011;14962;52.482;13.142;2022-08-19T07:50:43;13.15;;;11.23;;
27517;SDS011;14962;52.482;13.142;2022-08-19T07:53:09;18.38;;;12.50;;
27517;SDS011;14962;52.482;13.142;2022-08-19T07:55:36;14.40;;;11.77;;
27517;SDS011;14962;52.482;13.142;2022-08-19T07:58:02;13.50;;;11.38;;
27517;SDS011;14962;52.482;13.142;2022-08-19T08:00:29;13.70;;;11.60;;
27517;SDS011;14962;52.482;13.142;2022-08-19T08:02:55;15.75;;;11.52;;
27517;SDS011;14962;52.482;13.142;2022-08-19T08:05:22;13.85;;;12.13;;
27517;SDS011;14962;52.482;13.142;2022-08-19T08:08:07;14.35;;;11.40;;
27517;SDS011;14962;52.482;13.142;2022-08-19T08:10:51;13.40;;;12.00;;
27517;SDS011;14962;52.482;13.142;2022-08-19T08:13:17;17.85;;;11.77;;
27517;SDS011;14962;52.482;13.142;2022-08-19T08:15:43;16.63;;;12.65;;
27517;SDS011;14962;52.482;13.142;2022-08-19T08:18:10;15.27;;;12.25;;
27517;SDS011;14962;52.482;13.142;2022-08-19T08:20:36;15.35;;;12.38;;
27517;SDS011;14962;52.482;13.142;2022-08-19T08:23:02;13.45;;;11.85;;
27517;SDS011;14962;52.482;13.142;2022-08-19T08:25:47;16.98;;;12.80;;
27517;SDS011;14962;52.482;13.142;2022-08-19T08:28:13;14.07;;;11.95;;
27517;SDS011;14962;52.482;13.142;2022-08-19T08:30:39;14.82;;;12.35;;
27517;SDS011;14962;52.482;13.142;2022-08-19T08:33:08;14.45;;;11.93;;
27517;SDS011;14962;52.482;13.142;2022-08-19T08:35:34;15.43;;;11.82;;
27517;SDS011;14962;52.482;13.142;2022-08-19T08:38:00;15.02;;;12.38;;
27517;SDS011;14962;52.482;13.142;2022-08-19T08:45:56;15.07;;;11.48;;
27517;SDS011;14962;52.482;13.142;2022-08-19T08:48:25;13.75;;;11.55;;
27517;SDS011;14962;52.482;13.142;2022-08-19T08:50:56;13.95;;;11.30;;
27517;SDS011;14962;52.482;13.142;2022-08-19T08:53:23;12.23;;;10.90;;
27517;SDS011;14962;52.482;13.142;2022-08-19T08:55:49;16.10;;;12.13;;
27517;SDS011;14962;52.482;13.142;2022-08-19T08:58:39;12.82;;;10.15;;
27517;SDS011;14962;52.482;13.142;2022-08-19T09:01:08;18.35;;;10.88;;
27517;SDS011;14962;52.482;13.142;2022-08-19T09:03:35;18.48;;;11.23;;
27517;SDS011;14962;52.482;13.142;2022-08-19T09:06:03;15.95;;;11.45;;
27517;SDS011;14962;52.482;13.142;2022-08-19T09:08:34;12.50;;;11.07;;
27517;SDS011;14962;52.482;13.142;2022-08-19T09:11:04;13.52;;;11.23;;
27517;SDS011;14962;52.482;13.142;2022-08-19T09:13:38;12.48;;;10.70;;
27517;SDS011;14962;52.482;13.142;2022-08-19T09:16:11;12.60;;;10.80;;
27517;SDS011;14962;52.482;13.142;2022-08-19T09:18:39;12.63;;;11.18;;
27517;SDS011;14962;52.482;13.142;2022-08-19T09:21:06;12.50;;;9.60;;
27517;SDS011;14962;52.482;13.142;2022-08-19T09:23:33;11.00;;;9.82;;
27517;SDS011;14962;52.482;13.142;2022-08-19T09:25:59;10.82;;;9.32;;
27517;SDS011;14962;52.482;13.142;2022-08-19T09:28:25;11.55;;;9.18;;
27517;SDS011;14962;52.482;13.142;2022-08-19T09:30:52;12.75;;;10.65;;
27517;SDS011;14962;52.482;13.142;2022-08-19T09:33:18;12.80;;;8.98;;
27517;SDS011;14962;52.482;13.142;2022-08-19T09:35:44;11.35;;;9.07;;
27517;SDS011;14962;52.482;13.142;2022-08-19T09:38:11;11.23;;;8.95;;
27517;SDS011;14962;52.482;13.142;2022-08-19T09:40:37;11.10;;;9.75;;
27517;SDS011;14962;52.482;13.142;2022-08-19T09:43:03;11.70;;;9.77;;
27517;SDS011;14962;52.482;13.142;2022-08-19T09:45:29;12.18;;;9.77;;
27517;SDS011;14962;52.482;13.142;2022-08-19T09:47:56;13.07;;;9.88;;
27517;SDS011;14962;52.482;13.142;2022-08-19T09:50:22;13.68;;;10.05;;
27517;SDS011;14962;52.482;13.142;2022-08-19T09:52:48;13.75;;;10.48;;
27517;SDS011;14962;52.482;13.142;2022-08-19T09:55:14;13.77;;;10.32;;
27517;SDS011;14962;52.482;13.142;2022-08-19T09:57:41;11.70;;;9.85;;
27517;SDS011;14962;52.482;13.142;2022-08-19T10:00:07;15.07;;;10.23;;
27517;SDS011;14962;52.482;13.142;2022-08-19T10:02:34;10.13;;;8.90;;
27517;SDS011;14962;52.482;13.142;2022-08-19T10:05:00;10.88;;;9.57;;
27517;SDS011;14962;52.482;13.142;2022-08-19T10:07:45;11.77;;;10.18;;
27517;SDS011;14962;52.482;13.142;2022-08-19T10:10:11;14.13;;;9.90;;
27517;SDS011;14962;52.482;13.142;2022-08-19T10:12:37;13.80;;;9.93;;
27517;SDS011;14962;52.482;13.142;2022-08-19T10:15:04;11.48;;;9.63;;
27517;SDS011;14962;52.482;13.142;2022-08-19T10:17:30;13.20;;;10.45;;
27517;SDS011;14962;52.482;13.142;2022-08-19T10:20:00;13.90;;;10.38;;
27517;SDS011;14962;52.482;13.142;2022-08-19T10:22:27;12.48;;;10.52;;
27517;SDS011;14962;52.482;13.142;2022-08-19T10:24:53;14.40;;;10.32;;
27517;SDS011;14962;52.482;13.142;2022-08-19T10:27:19;13.80;;;9.52;;
27517;SDS011;14962;52.482;13.142;2022-08-19T10:29:45;12.65;;;10.18;;
27517;SDS011;14962;52.482;13.142;2022-08-19T10:32:12;14.00;;;10.00;;
27517;SDS011;14962;52.482;13.142;2022-08-19T10:34:38;13.77;;;11.27;;
27517;SDS011;14962;52.482;13.142;2022-08-19T10:37:05;13.38;;;10.80;;
27517;SDS011;14962;52.482;13.142;2022-08-19T10:39:32;13.93;;;10.38;;
27517;SDS011;14962;52.482;13.142;2022-08-19T10:41:59;13.73;;;10.07;;
27517;SDS011;14962;52.482;13.142;2022-08-19T10:44:25;11.15;;;9.85;;
27517;SDS011;14962;52.482;13.142;2022-08-19T10:46:53;13.70;;;10.68;;
27517;SDS011;14962;52.482;13.142;2022-08-19T10:49:19;14.13;;;10.38;;
27517;SDS011;14962;52.482;13.142;2022-08-19T10:51:45;11.48;;;10.13;;
27517;SDS011;14962;52.482;13.142;2022-08-19T10:54:30;15.18;;;10.52;;
27517;SDS011;14962;52.482;13.142;2022-08-19T10:57:16;12.98;;;10.55;;
27517;SDS011;14962;52.482;13.142;2022-08-19T10:59:42;15.50;;;9.98;;
27517;SDS011;14962;52.482;13.142;2022-08-19T11:02:09;11.18;;;9.05;;
27517;SDS011;14962;52.482;13.142;2022-08-19T11:04:38;12.20;;;9.68;;
27517;SDS011;14962;52.482;13.142;2022-08-19T11:07:05;11.63;;;8.90;;
27517;SDS011;14962;52.482;13.142;2022-08-19T11:09:35;9.88;;;8.57;;
27517;SDS011;14962;52.482;13.142;2022-08-19T11:12:02;11.77;;;9.35;;
27517;SDS011;14962;52.482;13.142;2022-08-19T11:14:28;14.48;;;9.43;;
27517;SDS011;14962;52.482;13.142;2022-08-19T11:16:55;9.43;;;8.45;;
27517;SDS011;14962;52.482;13.142;2022-08-19T11:19:22;10.77;;;8.73;;
27517;SDS011;14962;52.482;13.142;2022-08-19T11:21:48;10.95;;;8.25;;
27517;SDS011;14962;52.482;13.142;2022-08-19T11:24:16;9.50;;;7.93;;
27517;SDS011;14962;52.482;13.142;2022-08-19T11:26:43;9.63;;;7.78;;
27517;SDS011;14962;52.482;13.142;2022-08-19T11:29:10;11.02;;;8.02;;
27517;SDS011;14962;52.482;13.142;2022-08-19T11:31:38;10.82;;;8.50;;
27517;SDS011;14962;52.482;13.142;2022-08-19T11:34:05;10.23;;;7.40;;
27517;SDS011;14962;52.482;13.142;2022-08-19T11:36:32;9.20;;;7.68;;
27517;SDS011;14962;52.482;13.142;2022-08-19T11:38:59;11.32;;;8.50;;
27517;SDS011;14962;52.482;13.142;2022-08-19T11:41:25;10.75;;;7.88;;
27517;SDS011;14962;52.482;13.142;2022-08-19T11:43:51;9.63;;;7.20;;
27517;SDS011;14962;52.482;13.142;2022-08-19T11:46:19;10.40;;;7.18;;
27517;SDS011;14962;52.482;13.142;2022-08-19T11:48:45;8.55;;;6.53;;
27517;SDS011;14962;52.482;13.142;2022-08-19T11:51:12;8.73;;;6.75;;
27517;SDS011;14962;52.482;13.142;2022-08-19T11:53:39;7.60;;;6.78;;
27517;SDS011;14962;52.482;13.142;2022-08-19T11:56:05;10.32;;;6.82;;
27517;SDS011;14962;52.482;13.142;2022-08-19T11:58:31;7.85;;;6.40;;
27517;SDS011;14962;52.482;13.142;2022-08-19T12:00:58;9.45;;;7.05;;
27517;SDS011;14962;52.482;13.142;2022-08-19T12:03:24;7.60;;;6.35;;
27517;SDS011;14962;52.482;13.142;2022-08-19T12:05:50;8.77;;;7.18;;
27517;SDS011;14962;52.482;13.142;2022-08-19T12:08:16;8.05;;;6.70;;
27517;SDS011;14962;52.482;13.142;2022-08-19T12:10:42;9.50;;;6.43;;
27517;SDS011;14962;52.482;13.142;2022-08-19T12:13:10;7.15;;;6.45;;
27517;SDS011;14962;52.482;13.142;2022-08-19T12:15:39;7.63;;;6.35;;
27517;SDS011;14962;52.482;13.142;2022-08-19T12:18:06;9.52;;;6.68;;
27517;SDS011;14962;52.482;13.142;2022-08-19T12:20:34;9.32;;;6.53;;
27517;SDS011;14962;52.482;13.142;2022-08-19T12:23:01;7.20;;;6.47;;
27517;SDS011;14962;52.482;13.142;2022-08-19T12:25:27;7.63;;;6.32;;
27517;SDS011;14962;52.482;13.142;2022-08-19T12:27:53;7.85;;;6.18;;
27517;SDS011;14962;52.482;13.142;2022-08-19T12:30:20;8.27;;;5.88;;
27517;SDS011;14962;52.482;13.142;2022-08-19T12:32:46;7.32;;;6.18;;
27517;SDS011;14962;52.482;13.142;2022-08-19T12:35:12;7.07;;;5.93;;
27517;SDS011;14962;52.482;13.142;2022-08-19T12:37:38;9.23;;;6.68;;
27517;SDS011;14962;52.482;13.142;2022-08-19T12:40:09;10.77;;;6.25;;
27517;SDS011;14962;52.482;13.142;2022-08-19T12:42:36;9.18;;;5.97;;
27517;SDS011;14962;52.482;13.142;2022-08-19T12:45:05;6.95;;;6.18;;
27517;SDS011;14962;52.482;13.142;2022-08-19T12:47:32;8.48;;;6.00;;
27517;SDS011;14962;52.482;13.142;2022-08-19T12:49:58;8.23;;;5.93;;
27517;SDS011;14962;52.482;13.142;2022-08-19T12:52:25;7.03;;;6.32;;
27517;SDS011;14962;52.482;13.142;2022-08-19T12:54:53;6.65;;;5.60;;
27517;SDS011;14962;52.482;13.142;2022-08-19T12:57:19;6.13;;;5.53;;
27517;SDS011;14962;52.482;13.142;2022-08-19T12:59:45;7.53;;;5.93;;
27517;SDS011;14962;52.482;13.142;2022-08-19T13:02:11;9.73;;;6.15;;
27517;SDS011;14962;52.482;13.142;2022-08-19T13:04:37;11.40;;;8.07;;
27517;SDS011;14962;52.482;13.142;2022-08-19T13:07:06;10.27;;;8.05;;
27517;SDS011;14962;52.482;13.142;2022-08-19T13:09:32;11.98;;;10.13;;
27517;SDS011;14962;52.482;13.142;2022-08-19T13:11:58;17.23;;;12.45;;
27517;SDS011;14962;52.482;13.142;2022-08-19T13:14:28;15.80;;;12.55;;
27517;SDS011;14962;52.482;13.142;2022-08-19T13:16:55;16.27;;;13.43;;
27517;SDS011;14962;52.482;13.142;2022-08-19T13:19:22;15.48;;;11.35;;
27517;SDS011;14962;52.482;13.142;2022-08-19T13:21:49;15.30;;;12.68;;
27517;SDS011;14962;52.482;13.142;2022-08-19T13:24:16;16.30;;;12.85;;
27517;SDS011;14962;52.482;13.142;2022-08-19T13:26:42;17.88;;;12.02;;
27517;SDS011;14962;52.482;13.142;2022-08-19T13:29:08;12.82;;;10.75;;
27517;SDS011;14962;52.482;13.142;2022-08-19T13:31:53;13.23;;;11.10;;
27517;SDS011;14962;52.482;13.142;2022-08-19T13:34:38;16.52;;;11.68;;
27517;SDS011;14962;52.482;13.142;2022-08-19T13:37:04;15.95;;;10.77;;
27517;SDS011;14962;52.482;13.142;2022-08-19T13:39:31;12.10;;;10.65;;
27517;SDS011;14962;52.482;13.142;2022-08-19T13:41:57;16.15;;;11.25;;
27517;SDS011;14962;52.482;13.142;2022-08-19T13:44:24;13.38;;;10.40;;
27517;SDS011;14962;52.482;13.142;2022-08-19T13:46:51;12.45;;;10.25;;
27517;SDS011;14962;52.482;13.142;2022-08-19T13:49:18;10.60;;;8.93;;
27517;SDS011;14962;52.482;13.142;2022-08-19T13:51:45;12.20;;;9.10;;
27517;SDS011;14962;52.482;13.142;2022-08-19T13:54:11;12.77;;;8.68;;
27517;SDS011;14962;52.482;13.142;2022-08-19T13:56:42;13.55;;;8.65;;
27517;SDS011;14962;52.482;13.142;2022-08-19T13:59:08;9.60;;;8.60;;
27517;SDS011;14962;52.482;13.142;2022-08-19T14:01:34;10.45;;;7.90;;
27517;SDS011;14962;52.482;13.142;2022-08-19T14:04:00;11.20;;;7.82;;
27517;SDS011;14962;52.482;13.142;2022-08-19T14:06:26;8.95;;;7.13;;
27517;SDS011;14962;52.482;13.142;2022-08-19T14:08:52;9.27;;;7.82;;
27517;SDS011;14962;52.482;13.142;2022-08-19T14:11:19;8.15;;;7.35;;
27517;SDS011;14962;52.482;13.142;2022-08-19T14:13:47;8.75;;;6.80;;
27517;SDS011;14962;52.482;13.142;2022-08-19T14:16:14;8.85;;;6.85;;
27517;SDS011;14962;52.482;13.142;2022-08-19T14:18:40;8.93;;;7.18;;
27517;SDS011;14962;52.482;13.142;2022-08-19T14:21:06;8.38;;;6.72;;